sensor_id;sensor_type;location;lat;lon;timestamp;pressure;altitude;pressure_sealevel;temperature;humidity
80712;BME280;70078;51.596;5.678;2024-03-23T00:55:50;100936.78;;;7.56;87.61
80712;BME280;70078;51.596;5.678;2024-03-23T00:58:15;100942.09;;;7.56;87.65
80712;BME280;70078;51.596;5.678;2024-03-23T01:00:40;100936.00;;;7.45;87.93
80712;BME280;70078;51.596;5.678;2024-03-23T01:03:06;100916.19;;;7.30;88.04
80712;BME280;70078;51.596;5.678;2024-03-23T01:05:31;100942.59;;;7.41;88.13
80712;BME280;70078;51.596;5.678;2024-03-23T01:07:56;100936.72;;;7.38;88.34
80712;BME280;70078;51.596;5.678;2024-03-23T01:10:22;100941.47;;;7.34;88.31
80712;BME280;70078;51.596;5.678;2024-03-23T01:12:47;100933.50;;;7.24;88.21
80712;BME280;70078;51.596;5.678;2024-03-23T01:15:12;100943.16;;;7.35;88.33
80712;BME280;70078;51.596;5.678;2024-03-23T01:17:38;100957.69;;;7.31;88.45
80712;BME280;70078;51.596;5.678;2024-03-23T01:20:03;100932.81;;;7.22;88.41
80712;BME280;70078;51.596;5.678;2024-03-23T01:22:29;100948.19;;;7.29;88.63
80712;BME280;70078;51.596;5.678;2024-03-23T01:24:54;100924.97;;;7.31;87.96
80712;BME280;70078;51.596;5.678;2024-03-23T01:27:20;100906.00;;;7.26;88.13
80712;BME280;70078;51.596;5.678;2024-03-23T01:29:45;100915.34;;;7.30;88.52
80712;BME280;70078;51.596;5.678;2024-03-23T01:32:10;100928.81;;;7.18;88.90
80712;BME280;70078;51.596;5.678;2024-03-23T01:34:36;100930.03;;;7.14;89.32
80712;BME280;70078;51.596;5.678;2024-03-23T01:37:01;100924.19;;;7.20;89.46
80712;BME280;70078;51.596;5.678;2024-03-23T01:39:26;100908.50;;;7.17;89.68
80712;BME280;70078;51.596;5.678;2024-03-23T01:41:52;100929.50;;;7.20;90.66
80712;BME280;70078;51.596;5.678;2024-03-23T01:44:17;100909.38;;;7.08;90.13
80712;BME280;70078;51.596;5.678;2024-03-23T01:46:43;100903.78;;;7.02;89.61
80712;BME280;70078;51.596;5.678;2024-03-23T01:49:09;100903.53;;;7.05;90.04
80712;BME280;70078;51.596;5.678;2024-03-23T01:51:35;100902.69;;;7.04;89.99
80712;BME280;70078;51.596;5.678;2024-03-23T01:54:01;100913.03;;;6.98;89.37
80712;BME280;70078;51.596;5.678;2024-03-23T01:56:32;100910.25;;;6.89;89.80
80712;BME280;70078;51.596;5.678;2024-03-23T01:59:03;100909.41;;;6.89;89.74
80712;BME280;70078;51.596;5.678;2024-03-23T02:01:29;100895.16;;;6.90;89.80
80712;BME280;70078;51.596;5.678;2024-03-23T02:03:55;100883.00;;;6.78;89.63
80712;BME280;70078;51.596;5.678;2024-03-23T02:06:20;100869.19;;;6.64;89.49
80712;BME280;70078;51.596;5.678;2024-03-23T02:08:45;100884.41;;;6.82;89.64
80712;BME280;70078;51.596;5.678;2024-03-23T02:11:11;100859.72;;;6.52;89.89
80712;BME280;70078;51.596;5.678;2024-03-23T02:13:36;100890.41;;;6.64;90.22
80712;BME280;70078;51.596;5.678;2024-03-23T02:16:01;100870.88;;;6.56;90.12
80712;BME280;70078;51.596;5.678;2024-03-23T02:18:27;100886.81;;;6.65;90.30
80712;BME280;70078;51.596;5.678;2024-03-23T02:20:52;100858.03;;;6.42;90.35
80712;BME280;70078;51.596;5.678;2024-03-23T02:23:18;100868.50;;;6.33;90.92
80712;BME280;70078;51.596;5.678;2024-03-23T02:25:44;100892.22;;;6.54;90.89
80712;BME280;70078;51.596;5.678;2024-03-23T02:28:09;100874.63;;;6.34;91.14
80712;BME280;70078;51.596;5.678;2024-03-23T02:30:35;100882.63;;;6.44;91.23
80712;BME280;70078;51.596;5.678;2024-03-23T02:33:00;100882.31;;;6.37;91.42
80712;BME280;70078;51.596;5.678;2024-03-23T02:35:26;100892.94;;;6.47;91.47
80712;BME280;70078;51.596;5.678;2024-03-23T02:37:51;100877.72;;;6.39;91.63
80712;BME280;70078;51.596;5.678;2024-03-23T02:40:17;100869.34;;;6.53;91.89
80712;BME280;70078;51.596;5.678;2024-03-23T02:42:43;100855.22;;;6.33;91.86
80712;BME280;70078;51.596;5.678;2024-03-23T02:45:08;100850.22;;;6.30;92.05
80712;BME280;70078;51.596;5.678;2024-03-23T02:47:34;100888.31;;;6.39;92.65
80712;BME280;70078;51.596;5.678;2024-03-23T02:49:59;100879.94;;;6.34;92.91
80712;BME280;70078;51.596;5.678;2024-03-23T02:52:25;100886.25;;;6.43;92.93
80712;BME280;70078;51.596;5.678;2024-03-23T02:54:50;100887.19;;;6.42;93.01
80712;BME280;70078;51.596;5.678;2024-03-23T02:57:16;100866.81;;;6.23;93.38
80712;BME280;70078;51.596;5.678;2024-03-23T02:59:41;100881.06;;;6.41;93.33
80712;BME280;70078;51.596;5.678;2024-03-23T03:02:06;100880.50;;;6.37;93.35
80712;BME280;70078;51.596;5.678;2024-03-23T03:04:32;100872.13;;;6.42;93.78
80712;BME280;70078;51.596;5.678;2024-03-23T03:06:57;100858.72;;;6.34;93.57
80712;BME280;70078;51.596;5.678;2024-03-23T03:09:23;100872.00;;;6.44;93.56
80712;BME280;70078;51.596;5.678;2024-03-23T03:11:49;100854.00;;;6.37;94.02
80712;BME280;70078;51.596;5.678;2024-03-23T03:14:14;100860.28;;;6.36;93.73
80712;BME280;70078;51.596;5.678;2024-03-23T03:16:39;100849.94;;;6.24;93.74
80712;BME280;70078;51.596;5.678;2024-03-23T03:19:05;100866.28;;;6.38;93.59
80712;BME280;70078;51.596;5.678;2024-03-23T03:21:31;100869.22;;;6.45;93.93
80712;BME280;70078;51.596;5.678;2024-03-23T03:23:57;100871.44;;;6.40;93.80
80712;BME280;70078;51.596;5.678;2024-03-23T03:26:23;100872.41;;;6.39;93.84
80712;BME280;70078;51.596;5.678;2024-03-23T03:28:48;100863.75;;;6.27;94.25
80712;BME280;70078;51.596;5.678;2024-03-23T03:31:15;100853.56;;;6.32;93.72
80712;BME280;70078;51.596;5.678;2024-03-23T03:33:41;100880.38;;;6.39;93.56
80712;BME280;70078;51.596;5.678;2024-03-23T03:36:07;100876.03;;;6.38;93.95
80712;BME280;70078;51.596;5.678;2024-03-23T03:38:32;100862.50;;;6.31;93.79
80712;BME280;70078;51.596;5.678;2024-03-23T03:41:00;100849.38;;;6.30;93.85
80712;BME280;70078;51.596;5.678;2024-03-23T03:43:25;100847.28;;;6.24;93.78
80712;BME280;70078;51.596;5.678;2024-03-23T03:45:52;100859.59;;;6.44;93.26
80712;BME280;70078;51.596;5.678;2024-03-23T03:48:17;100843.50;;;6.26;93.17
80712;BME280;70078;51.596;5.678;2024-03-23T03:50:43;100837.94;;;6.20;93.35
80712;BME280;70078;51.596;5.678;2024-03-23T03:53:08;100856.66;;;6.28;93.61
80712;BME280;70078;51.596;5.678;2024-03-23T03:55:33;100816.16;;;6.06;93.53
80712;BME280;70078;51.596;5.678;2024-03-23T03:57:59;100851.88;;;6.22;93.35
80712;BME280;70078;51.596;5.678;2024-03-23T04:00:24;100858.88;;;6.23;93.48
80712;BME280;70078;51.596;5.678;2024-03-23T04:02:50;100855.38;;;6.22;93.35
80712;BME280;70078;51.596;5.678;2024-03-23T04:05:16;100838.91;;;6.09;93.01
80712;BME280;70078;51.596;5.678;2024-03-23T04:07:42;100843.22;;;6.10;93.03
80712;BME280;70078;51.596;5.678;2024-03-23T04:10:07;100861.38;;;6.15;93.30
80712;BME280;70078;51.596;5.678;2024-03-23T04:12:36;100859.13;;;6.10;92.95
80712;BME280;70078;51.596;5.678;2024-03-23T04:15:01;100853.41;;;6.05;92.58
80712;BME280;70078;51.596;5.678;2024-03-23T04:17:28;100873.34;;;6.09;92.70
80712;BME280;70078;51.596;5.678;2024-03-23T04:19:57;100870.84;;;6.07;92.75
80712;BME280;70078;51.596;5.678;2024-03-23T04:22:22;100849.34;;;5.91;91.98
80712;BME280;70078;51.596;5.678;2024-03-23T04:24:49;100849.25;;;5.81;91.79
80712;BME280;70078;51.596;5.678;2024-03-23T04:27:14;100842.72;;;5.76;90.78
80712;BME280;70078;51.596;5.678;2024-03-23T04:29:40;100867.41;;;5.86;90.98
80712;BME280;70078;51.596;5.678;2024-03-23T04:32:05;100865.81;;;5.74;91.17
80712;BME280;70078;51.596;5.678;2024-03-23T04:34:31;100857.00;;;5.64;90.96
80712;BME280;70078;51.596;5.678;2024-03-23T04:36:58;100858.69;;;5.65;91.55
80712;BME280;70078;51.596;5.678;2024-03-23T04:39:23;100870.41;;;5.62;90.75
80712;BME280;70078;51.596;5.678;2024-03-23T04:41:48;100821.47;;;5.26;90.80
80712;BME280;70078;51.596;5.678;2024-03-23T04:44:14;100831.41;;;5.34;90.14
80712;BME280;70078;51.596;5.678;2024-03-23T04:46:39;100861.28;;;5.45;90.42
80712;BME280;70078;51.596;5.678;2024-03-23T04:49:05;100852.75;;;5.42;90.20
80712;BME280;70078;51.596;5.678;2024-03-23T04:51:35;100847.69;;;5.29;90.13
80712;BME280;70078;51.596;5.678;2024-03-23T04:54:01;100864.78;;;5.25;90.23
80712;BME280;70078;51.596;5.678;2024-03-23T04:56:26;100865.06;;;5.22;90.47
80712;BME280;70078;51.596;5.678;2024-03-23T04:58:51;100846.88;;;5.08;90.91
80712;BME280;70078;51.596;5.678;2024-03-23T05:01:17;100853.84;;;5.09;90.68
80712;BME280;70078;51.596;5.678;2024-03-23T05:03:42;100828.94;;;4.90;90.86
80712;BME280;70078;51.596;5.678;2024-03-23T05:06:07;100856.88;;;5.04;91.15
80712;BME280;70078;51.596;5.678;2024-03-23T05:08:33;100821.09;;;4.79;90.98
80712;BME280;70078;51.596;5.678;2024-03-23T05:10:58;100860.81;;;4.89;91.27
80712;BME280;70078;51.596;5.678;2024-03-23T05:13:23;100845.66;;;4.70;91.91
80712;BME280;70078;51.596;5.678;2024-03-23T05:15:55;100856.56;;;4.77;91.99
80712;BME280;70078;51.596;5.678;2024-03-23T05:18:21;100859.13;;;4.67;91.70
80712;BME280;70078;51.596;5.678;2024-03-23T05:20:47;100846.19;;;4.64;92.10
80712;BME280;70078;51.596;5.678;2024-03-23T05:23:12;100834.91;;;4.62;92.25
80712;BME280;70078;51.596;5.678;2024-03-23T05:25:37;100852.56;;;4.61;92.69
80712;BME280;70078;51.596;5.678;2024-03-23T05:28:03;100833.97;;;4.52;92.68
80712;BME280;70078;51.596;5.678;2024-03-23T05:30:28;100862.28;;;4.61;93.10
80712;BME280;70078;51.596;5.678;2024-03-23T05:32:54;100829.59;;;4.41;93.17
80712;BME280;70078;51.596;5.678;2024-03-23T05:35:19;100859.06;;;4.57;93.38
80712;BME280;70078;51.596;5.678;2024-03-23T05:37:44;100839.31;;;4.40;93.46
80712;BME280;70078;51.596;5.678;2024-03-23T05:40:11;100837.31;;;4.33;93.68
80712;BME280;70078;51.596;5.678;2024-03-23T05:42:37;100866.16;;;4.57;94.35
80712;BME280;70078;51.596;5.678;2024-03-23T05:45:03;100838.81;;;4.47;94.07
80712;BME280;70078;51.596;5.678;2024-03-23T05:47:31;100842.16;;;4.49;93.97
80712;BME280;70078;51.596;5.678;2024-03-23T05:49:57;100848.41;;;4.48;94.38
80712;BME280;70078;51.596;5.678;2024-03-23T05:52:22;100848.66;;;4.44;94.54
80712;BME280;70078;51.596;5.678;2024-03-23T05:54:47;100852.22;;;4.55;94.08
80712;BME280;70078;51.596;5.678;2024-03-23T05:57:13;100858.78;;;4.60;94.80
80712;BME280;70078;51.596;5.678;2024-03-23T05:59:38;100810.75;;;4.34;94.79
80712;BME280;70078;51.596;5.678;2024-03-23T06:02:04;100851.84;;;4.59;94.64
80712;BME280;70078;51.596;5.678;2024-03-23T06:04:29;100843.78;;;4.61;95.14
80712;BME280;70078;51.596;5.678;2024-03-23T06:06:54;100852.03;;;4.67;95.27
80712;BME280;70078;51.596;5.678;2024-03-23T06:09:20;100861.91;;;4.65;95.64
80712;BME280;70078;51.596;5.678;2024-03-23T06:11:45;100866.31;;;4.76;95.67
80712;BME280;70078;51.596;5.678;2024-03-23T06:14:11;100848.81;;;4.64;95.64
80712;BME280;70078;51.596;5.678;2024-03-23T06:16:36;100860.50;;;4.82;95.77
80712;BME280;70078;51.596;5.678;2024-03-23T06:19:03;100869.66;;;4.78;95.66
80712;BME280;70078;51.596;5.678;2024-03-23T06:21:29;100865.34;;;4.77;95.93
80712;BME280;70078;51.596;5.678;2024-03-23T06:23:55;100845.16;;;4.76;95.96
80712;BME280;70078;51.596;5.678;2024-03-23T06:26:21;100863.31;;;4.90;95.90
80712;BME280;70078;51.596;5.678;2024-03-23T06:28:47;100851.84;;;4.80;95.97
80712;BME280;70078;51.596;5.678;2024-03-23T06:31:13;100870.88;;;4.95;95.62
80712;BME280;70078;51.596;5.678;2024-03-23T06:33:38;100841.97;;;4.82;95.48
80712;BME280;70078;51.596;5.678;2024-03-23T06:36:05;100857.97;;;5.01;95.74
80712;BME280;70078;51.596;5.678;2024-03-23T06:38:31;100826.28;;;4.90;95.88
80712;BME280;70078;51.596;5.678;2024-03-23T06:40:56;100861.00;;;5.18;95.07
80712;BME280;70078;51.596;5.678;2024-03-23T06:43:22;100869.44;;;5.33;95.11
80712;BME280;70078;51.596;5.678;2024-03-23T06:45:54;100868.91;;;5.39;94.72
80712;BME280;70078;51.596;5.678;2024-03-23T06:48:20;100859.19;;;5.49;95.28
80712;BME280;70078;51.596;5.678;2024-03-23T06:50:45;100871.31;;;5.82;94.69
80712;BME280;70078;51.596;5.678;2024-03-23T06:53:14;100841.13;;;5.64;94.96
80712;BME280;70078;51.596;5.678;2024-03-23T06:55:40;100870.00;;;5.97;93.30
80712;BME280;70078;51.596;5.678;2024-03-23T06:58:05;100851.34;;;5.78;93.49
80712;BME280;70078;51.596;5.678;2024-03-23T07:00:31;100844.25;;;5.78;93.10
80712;BME280;70078;51.596;5.678;2024-03-23T07:02:57;100881.00;;;6.02;92.28
80712;BME280;70078;51.596;5.678;2024-03-23T07:05:23;100881.44;;;6.07;91.94
80712;BME280;70078;51.596;5.678;2024-03-23T07:07:48;100870.25;;;6.04;91.51
80712;BME280;70078;51.596;5.678;2024-03-23T07:10:13;100875.06;;;6.20;91.78
80712;BME280;70078;51.596;5.678;2024-03-23T07:12:38;100875.06;;;6.29;90.97
80712;BME280;70078;51.596;5.678;2024-03-23T07:15:04;100858.03;;;6.13;90.36
80712;BME280;70078;51.596;5.678;2024-03-23T07:17:30;100855.78;;;6.18;88.63
80712;BME280;70078;51.596;5.678;2024-03-23T07:19:55;100867.66;;;6.23;88.67
80712;BME280;70078;51.596;5.678;2024-03-23T07:22:21;100874.38;;;6.37;89.37
80712;BME280;70078;51.596;5.678;2024-03-23T07:24:46;100847.28;;;6.33;89.45
80712;BME280;70078;51.596;5.678;2024-03-23T07:27:12;100875.91;;;6.59;89.57
80712;BME280;70078;51.596;5.678;2024-03-23T07:29:37;100872.00;;;6.73;89.44
80712;BME280;70078;51.596;5.678;2024-03-23T07:32:02;100872.00;;;6.73;89.61
80712;BME280;70078;51.596;5.678;2024-03-23T07:34:28;100861.53;;;6.61;89.15
80712;BME280;70078;51.596;5.678;2024-03-23T07:36:53;100873.53;;;6.65;89.39
80712;BME280;70078;51.596;5.678;2024-03-23T07:39:19;100890.97;;;6.49;88.18
80712;BME280;70078;51.596;5.678;2024-03-23T07:41:45;100882.31;;;6.56;87.79
80712;BME280;70078;51.596;5.678;2024-03-23T07:44:10;100876.47;;;6.53;88.20
80712;BME280;70078;51.596;5.678;2024-03-23T07:46:36;100878.13;;;6.63;87.79
80712;BME280;70078;51.596;5.678;2024-03-23T07:49:01;100864.31;;;6.60;88.11
80712;BME280;70078;51.596;5.678;2024-03-23T07:51:26;100870.59;;;6.78;87.45
80712;BME280;70078;51.596;5.678;2024-03-23T07:53:52;100874.91;;;6.79;87.48
80712;BME280;70078;51.596;5.678;2024-03-23T07:56:18;100876.72;;;6.79;86.97
80712;BME280;70078;51.596;5.678;2024-03-23T07:58:44;100870.84;;;6.85;86.99
80712;BME280;70078;51.596;5.678;2024-03-23T08:01:15;100855.22;;;6.82;86.72
80712;BME280;70078;51.596;5.678;2024-03-23T08:03:43;100861.91;;;6.95;87.03
80712;BME280;70078;51.596;5.678;2024-03-23T08:06:19;100865.25;;;6.98;86.99
80712;BME280;70078;51.596;5.678;2024-03-23T08:08:47;100867.09;;;6.97;87.51
80712;BME280;70078;51.596;5.678;2024-03-23T08:11:12;100847.06;;;7.03;86.35
80712;BME280;70078;51.596;5.678;2024-03-23T08:13:40;100874.41;;;7.22;86.74
80712;BME280;70078;51.596;5.678;2024-03-23T08:16:05;100872.19;;;7.28;86.73
80712;BME280;70078;51.596;5.678;2024-03-23T08:18:31;100874.94;;;7.36;86.76
80712;BME280;70078;51.596;5.678;2024-03-23T08:23:24;100875.16;;;7.52;86.38
80712;BME280;70078;51.596;5.678;2024-03-23T08:25:50;100869.78;;;7.71;85.33
80712;BME280;70078;51.596;5.678;2024-03-23T08:28:15;100848.13;;;7.66;83.60
80712;BME280;70078;51.596;5.678;2024-03-23T08:30:40;100835.50;;;7.68;83.50
80712;BME280;70078;51.596;5.678;2024-03-23T08:33:06;100860.66;;;8.01;84.08
80712;BME280;70078;51.596;5.678;2024-03-23T08:35:31;100864.31;;;8.18;84.28
80712;BME280;70078;51.596;5.678;2024-03-23T08:37:56;100865.16;;;8.19;83.82
80712;BME280;70078;51.596;5.678;2024-03-23T08:40:21;100839.59;;;8.36;84.17
80712;BME280;70078;51.596;5.678;2024-03-23T08:42:47;100864.38;;;8.72;84.70
80712;BME280;70078;51.596;5.678;2024-03-23T08:45:13;100864.31;;;9.07;80.83
80712;BME280;70078;51.596;5.678;2024-03-23T08:47:38;100840.91;;;8.93;80.00
80712;BME280;70078;51.596;5.678;2024-03-23T08:50:03;100855.28;;;9.00;78.59
80712;BME280;70078;51.596;5.678;2024-03-23T08:52:29;100863.81;;;8.86;79.10
80712;BME280;70078;51.596;5.678;2024-03-23T08:54:55;100862.19;;;9.19;80.16
80712;BME280;70078;51.596;5.678;2024-03-23T08:57:22;100868.44;;;9.62;79.75
80712;BME280;70078;51.596;5.678;2024-03-23T08:59:48;100863.88;;;9.88;76.89
80712;BME280;70078;51.596;5.678;2024-03-23T09:02:13;100833.41;;;9.99;76.49
80712;BME280;70078;51.596;5.678;2024-03-23T09:04:38;100843.69;;;10.28;76.60
80712;BME280;70078;51.596;5.678;2024-03-23T09:07:04;100859.41;;;10.96;74.00
80712;BME280;70078;51.596;5.678;2024-03-23T09:09:29;100835.34;;;10.88;68.28
80712;BME280;70078;51.596;5.678;2024-03-23T09:11:55;100848.28;;;11.32;71.68
80712;BME280;70078;51.596;5.678;2024-03-23T09:14:22;100836.78;;;11.71;69.25
80712;BME280;70078;51.596;5.678;2024-03-23T09:16:49;100831.84;;;11.99;65.67
80712;BME280;70078;51.596;5.678;2024-03-23T09:19:17;100837.34;;;12.05;65.60
80712;BME280;70078;51.596;5.678;2024-03-23T09:21:42;100840.44;;;11.78;64.16
80712;BME280;70078;51.596;5.678;2024-03-23T09:24:07;100839.63;;;11.30;65.23
80712;BME280;70078;51.596;5.678;2024-03-23T09:26:33;100844.06;;;10.66;66.37
80712;BME280;70078;51.596;5.678;2024-03-23T09:28:58;100824.91;;;10.04;69.04
80712;BME280;70078;51.596;5.678;2024-03-23T09:31:23;100866.94;;;10.10;70.49
80712;BME280;70078;51.596;5.678;2024-03-23T09:33:48;100838.88;;;9.47;68.78
80712;BME280;70078;51.596;5.678;2024-03-23T09:36:14;100860.41;;;9.28;70.52
80712;BME280;70078;51.596;5.678;2024-03-23T09:38:41;100855.00;;;9.11;71.34
80712;BME280;70078;51.596;5.678;2024-03-23T09:41:07;100831.94;;;8.76;72.16
80712;BME280;70078;51.596;5.678;2024-03-23T09:43:33;100847.19;;;8.66;72.28
80712;BME280;70078;51.596;5.678;2024-03-23T09:45:58;100843.22;;;8.70;74.25
80712;BME280;70078;51.596;5.678;2024-03-23T09:48:24;100829.94;;;8.96;75.96
80712;BME280;70078;51.596;5.678;2024-03-23T09:50:49;100816.53;;;9.40;75.83
80712;BME280;70078;51.596;5.678;2024-03-23T09:53:15;100844.94;;;9.99;74.74
80712;BME280;70078;51.596;5.678;2024-03-23T09:55:41;100814.00;;;10.55;71.10
80712;BME280;70078;51.596;5.678;2024-03-23T09:58:07;100818.91;;;11.32;69.38
80712;BME280;70078;51.596;5.678;2024-03-23T10:00:33;100831.94;;;11.82;68.76
80712;BME280;70078;51.596;5.678;2024-03-23T10:02:59;100828.50;;;12.28;68.18
80712;BME280;70078;51.596;5.678;2024-03-23T10:05:28;100831.94;;;12.59;62.29
80712;BME280;70078;51.596;5.678;2024-03-23T10:07:54;100805.53;;;12.94;61.12
80712;BME280;70078;51.596;5.678;2024-03-23T10:10:20;100836.06;;;13.37;61.17
80712;BME280;70078;51.596;5.678;2024-03-23T10:12:48;100826.44;;;13.72;59.06
80712;BME280;70078;51.596;5.678;2024-03-23T10:15:24;100826.72;;;13.77;59.01
80712;BME280;70078;51.596;5.678;2024-03-23T10:17:50;100805.59;;;13.74;55.80
80712;BME280;70078;51.596;5.678;2024-03-23T10:20:21;100825.44;;;13.58;56.21
80712;BME280;70078;51.596;5.678;2024-03-23T10:22:49;100812.28;;;13.19;57.44
80712;BME280;70078;51.596;5.678;2024-03-23T10:25:15;100832.66;;;13.28;58.93
80712;BME280;70078;51.596;5.678;2024-03-23T10:27:40;100825.03;;;13.17;59.57
80712;BME280;70078;51.596;5.678;2024-03-23T10:30:13;100827.03;;;12.86;55.95
80712;BME280;70078;51.596;5.678;2024-03-23T10:32:42;100806.84;;;12.37;56.77
80712;BME280;70078;51.596;5.678;2024-03-23T10:35:15;100816.81;;;11.58;58.19
80712;BME280;70078;51.596;5.678;2024-03-23T10:37:42;100835.34;;;11.04;60.45
80712;BME280;70078;51.596;5.678;2024-03-23T10:40:09;100827.69;;;10.77;61.25
80712;BME280;70078;51.596;5.678;2024-03-23T10:42:36;100841.28;;;11.31;62.52
80712;BME280;70078;51.596;5.678;2024-03-23T10:45:04;100848.31;;;11.87;62.36
80712;BME280;70078;51.596;5.678;2024-03-23T10:47:29;100844.91;;;11.46;60.51
80712;BME280;70078;51.596;5.678;2024-03-23T10:49:55;100847.31;;;11.25;59.94
80712;BME280;70078;51.596;5.678;2024-03-23T10:52:20;100845.34;;;10.94;61.24
80712;BME280;70078;51.596;5.678;2024-03-23T10:54:47;100851.91;;;10.67;63.15
80712;BME280;70078;51.596;5.678;2024-03-23T10:57:18;100851.59;;;10.12;63.12
80712;BME280;70078;51.596;5.678;2024-03-23T10:59:45;100838.22;;;9.87;64.13
80712;BME280;70078;51.596;5.678;2024-03-23T11:02:21;100843.72;;;9.52;63.90
80712;BME280;70078;51.596;5.678;2024-03-23T11:04:46;100837.03;;;9.13;64.39
80712;BME280;70078;51.596;5.678;2024-03-23T11:09:49;100833.78;;;9.28;65.79
80712;BME280;70078;51.596;5.678;2024-03-23T11:15:11;100842.38;;;10.81;65.86
80712;BME280;70078;51.596;5.678;2024-03-23T11:17:37;100832.59;;;11.37;64.17
80712;BME280;70078;51.596;5.678;2024-03-23T11:20:03;100843.66;;;11.81;63.46
80712;BME280;70078;51.596;5.678;2024-03-23T11:27:42;100850.19;;;12.78;60.06
80712;BME280;70078;51.596;5.678;2024-03-23T11:30:27;100844.44;;;12.44;59.21
80712;BME280;70078;51.596;5.678;2024-03-23T11:32:56;100850.09;;;11.95;60.76
80712;BME280;70078;51.596;5.678;2024-03-23T11:35:33;100857.78;;;11.51;61.38
80712;BME280;70078;51.596;5.678;2024-03-23T11:38:06;100826.88;;;10.60;59.67
80712;BME280;70078;51.596;5.678;2024-03-23T11:40:33;100840.34;;;10.99;61.46
80712;BME280;70078;51.596;5.678;2024-03-23T11:43:03;100824.38;;;10.50;62.56
80712;BME280;70078;51.596;5.678;2024-03-23T11:45:34;100850.47;;;10.14;64.06
80712;BME280;70078;51.596;5.678;2024-03-23T11:50:32;100825.34;;;10.82;67.00
80712;BME280;70078;51.596;5.678;2024-03-23T11:55:43;100818.25;;;11.69;66.89
80712;BME280;70078;51.596;5.678;2024-03-23T11:58:09;100815.75;;;12.07;63.91
80712;BME280;70078;51.596;5.678;2024-03-23T12:00:35;100823.03;;;12.82;65.34
80712;BME280;70078;51.596;5.678;2024-03-23T12:03:03;100836.34;;;13.27;64.44
80712;BME280;70078;51.596;5.678;2024-03-23T12:05:30;100817.72;;;13.85;60.93
80712;BME280;70078;51.596;5.678;2024-03-23T12:08:15;100810.56;;;14.28;59.56
80712;BME280;70078;51.596;5.678;2024-03-23T12:10:41;100818.34;;;14.87;56.59
80712;BME280;70078;51.596;5.678;2024-03-23T12:13:06;100802.16;;;14.81;56.62
80712;BME280;70078;51.596;5.678;2024-03-23T12:15:32;100804.19;;;15.41;50.13
80712;BME280;70078;51.596;5.678;2024-03-23T12:18:09;100785.53;;;15.33;49.60
80712;BME280;70078;51.596;5.678;2024-03-23T12:20:36;100818.56;;;15.55;50.63
80712;BME280;70078;51.596;5.678;2024-03-23T12:23:10;100805.88;;;15.42;48.24
80712;BME280;70078;51.596;5.678;2024-03-23T12:25:36;100793.78;;;14.90;48.12
80712;BME280;70078;51.596;5.678;2024-03-23T12:28:02;100798.66;;;14.37;47.98
80712;BME280;70078;51.596;5.678;2024-03-23T12:30:28;100782.81;;;13.34;48.23
80712;BME280;70078;51.596;5.678;2024-03-23T12:32:53;100794.22;;;12.84;50.66
80712;BME280;70078;51.596;5.678;2024-03-23T12:35:18;100808.75;;;12.29;50.49
80712;BME280;70078;51.596;5.678;2024-03-23T12:37:44;100787.97;;;11.77;52.72
80712;BME280;70078;51.596;5.678;2024-03-23T12:40:09;100798.66;;;11.85;54.30
80712;BME280;70078;51.596;5.678;2024-03-23T12:42:35;100807.66;;;12.38;55.98
80712;BME280;70078;51.596;5.678;2024-03-23T12:45:00;100799.00;;;12.73;55.29
80712;BME280;70078;51.596;5.678;2024-03-23T12:47:25;100800.06;;;12.27;55.60
80712;BME280;70078;51.596;5.678;2024-03-23T12:49:52;100783.97;;;11.81;56.48
80712;BME280;70078;51.596;5.678;2024-03-23T12:52:17;100805.31;;;11.89;57.23
80712;BME280;70078;51.596;5.678;2024-03-23T12:54:42;100812.91;;;11.22;61.28
80712;BME280;70078;51.596;5.678;2024-03-23T12:57:08;100804.78;;;11.54;66.23
80712;BME280;70078;51.596;5.678;2024-03-23T12:59:33;100797.00;;;11.36;63.48
80712;BME280;70078;51.596;5.678;2024-03-23T13:02:00;100802.44;;;11.59;62.65
80712;BME280;70078;51.596;5.678;2024-03-23T13:04:26;100807.56;;;11.30;61.47
80712;BME280;70078;51.596;5.678;2024-03-23T13:06:51;100795.75;;;11.08;59.93
80712;BME280;70078;51.596;5.678;2024-03-23T13:09:16;100795.81;;;10.67;58.94
80712;BME280;70078;51.596;5.678;2024-03-23T13:11:42;100823.38;;;10.43;59.97
80712;BME280;70078;51.596;5.678;2024-03-23T13:14:07;100824.31;;;10.26;60.48
80712;BME280;70078;51.596;5.678;2024-03-23T13:16:33;100808.91;;;10.04;61.23
80712;BME280;70078;51.596;5.678;2024-03-23T13:18:58;100837.75;;;10.00;61.58
80712;BME280;70078;51.596;5.678;2024-03-23T13:21:23;100825.06;;;9.94;61.24
80712;BME280;70078;51.596;5.678;2024-03-23T13:23:49;100806.81;;;9.65;63.01
80712;BME280;70078;51.596;5.678;2024-03-23T13:26:16;100818.34;;;9.31;64.45
80712;BME280;70078;51.596;5.678;2024-03-23T13:28:41;100804.28;;;9.21;66.58
80712;BME280;70078;51.596;5.678;2024-03-23T13:31:06;100827.69;;;9.43;68.72
80712;BME280;70078;51.596;5.678;2024-03-23T13:33:33;100819.09;;;9.58;66.92
80712;BME280;70078;51.596;5.678;2024-03-23T13:35:59;100813.00;;;9.73;68.82
80712;BME280;70078;51.596;5.678;2024-03-23T13:38:25;100812.94;;;9.57;66.17
80712;BME280;70078;51.596;5.678;2024-03-23T13:40:54;100827.22;;;9.48;65.56
80712;BME280;70078;51.596;5.678;2024-03-23T13:43:20;100828.16;;;9.31;65.20
80712;BME280;70078;51.596;5.678;2024-03-23T13:45:53;100799.22;;;9.10;65.24
80712;BME280;70078;51.596;5.678;2024-03-23T13:48:23;100810.56;;;9.12;65.46
80712;BME280;70078;51.596;5.678;2024-03-23T13:51:04;100800.28;;;9.17;67.72
80712;BME280;70078;51.596;5.678;2024-03-23T13:53:31;100777.41;;;8.80;67.30
80712;BME280;70078;51.596;5.678;2024-03-23T13:55:57;100797.41;;;9.10;68.23
80712;BME280;70078;51.596;5.678;2024-03-23T13:58:23;100785.97;;;9.18;68.34
80712;BME280;70078;51.596;5.678;2024-03-23T14:00:51;100740.50;;;9.54;69.89
80712;BME280;70078;51.596;5.678;2024-03-23T14:03:17;100769.13;;;10.35;67.92
80712;BME280;70078;51.596;5.678;2024-03-23T14:05:43;100766.97;;;10.30;65.78